sensor_id;sensor_type;location;lat;lon;timestamp;pressure;altitude;pressure_sealevel;temperature;humidity
48053;BME280;33824;51.600;5.718;2022-08-07T14:30:24;102129.16;;;30.15;26.27
48053;BME280;33824;51.600;5.718;2022-08-07T14:32:57;102135.00;;;29.41;27.10
48053;BME280;33824;51.600;5.718;2022-08-07T14:35:27;102126.44;;;29.37;27.72
48053;BME280;33824;51.600;5.718;2022-08-07T14:37:56;102120.47;;;29.50;28.22
48053;BME280;33824;51.600;5.718;2022-08-07T14:40:24;102127.47;;;29.21;28.33
48053;BME280;33824;51.600;5.718;2022-08-07T14:43:06;102127.50;;;28.79;27.61
48053;BME280;33824;51.600;5.718;2022-08-07T14:45:54;102129.69;;;28.45;28.04
48053;BME280;33824;51.600;5.718;2022-08-07T14:48:31;102125.09;;;28.24;28.25
48053;BME280;33824;51.600;5.718;2022-08-07T14:51:06;102124.50;;;28.17;28.39
48053;BME280;33824;51.600;5.718;2022-08-07T14:53:37;102128.94;;;28.23;28.80
48053;BME280;33824;51.600;5.718;2022-08-07T14:56:08;102132.19;;;28.20;28.46
48053;BME280;33824;51.600;5.718;2022-08-07T14:58:37;102124.56;;;28.22;28.58
48053;BME280;33824;51.600;5.718;2022-08-07T15:01:05;102126.94;;;28.13;28.40
48053;BME280;33824;51.600;5.718;2022-08-07T15:03:34;102131.41;;;27.98;28.26
48053;BME280;33824;51.600;5.718;2022-08-07T15:06:01;102118.31;;;28.05;28.33
48053;BME280;33824;51.600;5.718;2022-08-07T15:08:30;102116.09;;;28.02;28.57
48053;BME280;33824;51.600;5.718;2022-08-07T15:11:01;102120.56;;;28.08;28.67
48053;BME280;33824;51.600;5.718;2022-08-07T15:13:30;102118.84;;;28.02;29.83
48053;BME280;33824;51.600;5.718;2022-08-07T15:16:06;102114.13;;;27.71;27.97
48053;BME280;33824;51.600;5.718;2022-08-07T15:18:47;102114.88;;;27.66;29.11
48053;BME280;33824;51.600;5.718;2022-08-07T15:21:17;102109.91;;;27.85;29.48
48053;BME280;33824;51.600;5.718;2022-08-07T15:23:45;102108.41;;;27.99;29.94
48053;BME280;33824;51.600;5.718;2022-08-07T15:26:13;102114.09;;;27.92;28.30
48053;BME280;33824;51.600;5.718;2022-08-07T15:28:41;102109.22;;;27.99;28.87
48053;BME280;33824;51.600;5.718;2022-08-07T15:31:09;102108.47;;;28.04;28.91
48053;BME280;33824;51.600;5.718;2022-08-07T15:33:38;102106.22;;;28.01;28.80
48053;BME280;33824;51.600;5.718;2022-08-07T15:36:06;102110.72;;;28.12;27.85
48053;BME280;33824;51.600;5.718;2022-08-07T15:38:35;102097.66;;;27.92;27.87
48053;BME280;33824;51.600;5.718;2022-08-07T15:41:12;102103.22;;;27.76;28.16
48053;BME280;33824;51.600;5.718;2022-08-07T15:43:43;102097.59;;;27.87;28.26
48053;BME280;33824;51.600;5.718;2022-08-07T15:46:20;102094.56;;;28.16;29.43
48053;BME280;33824;51.600;5.718;2022-08-07T15:48:49;102094.53;;;28.42;29.14
48053;BME280;33824;51.600;5.718;2022-08-07T15:51:15;102086.72;;;28.24;28.72
48053;BME280;33824;51.600;5.718;2022-08-07T15:53:45;102087.47;;;28.15;28.79
48053;BME280;33824;51.600;5.718;2022-08-07T15:56:12;102088.41;;;28.30;29.58
48053;BME280;33824;51.600;5.718;2022-08-07T15:58:52;102079.91;;;28.00;28.39
48053;BME280;33824;51.600;5.718;2022-08-07T16:01:37;102087.59;;;28.03;27.76
48053;BME280;33824;51.600;5.718;2022-08-07T16:04:09;102086.88;;;28.12;28.69
48053;BME280;33824;51.600;5.718;2022-08-07T16:06:40;102085.41;;;28.32;28.81
48053;BME280;33824;51.600;5.718;2022-08-07T16:09:19;102085.69;;;28.35;29.01
48053;BME280;33824;51.600;5.718;2022-08-07T16:20:49;102079.41;;;28.72;27.97
48053;BME280;33824;51.600;5.718;2022-08-07T16:23:26;102075.84;;;28.34;27.83
48053;BME280;33824;51.600;5.718;2022-08-07T16:28:53;102077.72;;;27.48;28.80
48053;BME280;33824;51.600;5.718;2022-08-07T16:31:36;102071.00;;;27.17;29.63
48053;BME280;33824;51.600;5.718;2022-08-07T16:34:07;102067.50;;;27.00;29.45
48053;BME280;33824;51.600;5.718;2022-08-07T16:37:00;102080.19;;;26.35;30.31
48053;BME280;33824;51.600;5.718;2022-08-07T16:44:36;102075.44;;;26.13;32.06
48053;BME280;33824;51.600;5.718;2022-08-07T16:50:30;102071.34;;;25.83;33.54
48053;BME280;33824;51.600;5.718;2022-08-07T16:55:57;102072.75;;;25.57;33.96
48053;BME280;33824;51.600;5.718;2022-08-07T16:58:36;102073.00;;;25.55;34.77
48053;BME280;33824;51.600;5.718;2022-08-07T17:04:23;102069.63;;;25.25;33.99
48053;BME280;33824;51.600;5.718;2022-08-07T17:07:08;102077.47;;;25.21;34.30
48053;BME280;33824;51.600;5.718;2022-08-07T17:09:52;102073.81;;;25.16;34.88
48053;BME280;33824;51.600;5.718;2022-08-07T17:12:39;102082.47;;;25.13;34.78
48053;BME280;33824;51.600;5.718;2022-08-07T17:20:35;102076.69;;;25.09;35.45
48053;BME280;33824;51.600;5.718;2022-08-07T17:31:48;102076.81;;;24.79;36.01
48053;BME280;33824;51.600;5.718;2022-08-07T17:34:26;102089.38;;;24.69;36.66
48053;BME280;33824;51.600;5.718;2022-08-07T17:37:00;102077.41;;;24.70;37.09
48053;BME280;33824;51.600;5.718;2022-08-07T17:42:20;102085.69;;;24.52;37.09
48053;BME280;33824;51.600;5.718;2022-08-07T17:44:54;102090.31;;;24.51;37.07
48053;BME280;33824;51.600;5.718;2022-08-07T17:47:27;102091.63;;;24.37;37.03
48053;BME280;33824;51.600;5.718;2022-08-07T17:49:58;102099.13;;;24.12;36.28
48053;BME280;33824;51.600;5.718;2022-08-07T17:52:32;102096.00;;;23.97;36.64
48053;BME280;33824;51.600;5.718;2022-08-07T17:57:31;102103.16;;;23.79;37.17
48053;BME280;33824;51.600;5.718;2022-08-07T18:00:03;102101.16;;;23.57;36.80
48053;BME280;33824;51.600;5.718;2022-08-07T18:02:46;102100.34;;;23.38;37.93
48053;BME280;33824;51.600;5.718;2022-08-07T18:05:27;102100.91;;;23.40;37.54
48053;BME280;33824;51.600;5.718;2022-08-07T18:08:02;102098.91;;;23.35;37.55
48053;BME280;33824;51.600;5.718;2022-08-07T18:10:47;102101.19;;;23.20;37.86
48053;BME280;33824;51.600;5.718;2022-08-07T18:16:11;102106.09;;;23.12;38.43
48053;BME280;33824;51.600;5.718;2022-08-07T18:26:32;102119.22;;;22.78;39.66
48053;BME280;33824;51.600;5.718;2022-08-07T18:29:08;102119.41;;;22.77;39.32
48053;BME280;33824;51.600;5.718;2022-08-07T18:35:32;102127.56;;;22.52;40.42
48053;BME280;33824;51.600;5.718;2022-08-07T18:44:09;102128.81;;;22.25;41.10
48053;BME280;33824;51.600;5.718;2022-08-07T18:46:27;102130.38;;;22.14;41.83
48053;BME280;33824;51.600;5.718;2022-08-07T18:49:27;102138.78;;;22.06;42.05
48053;BME280;33824;51.600;5.718;2022-08-07T18:52:30;102138.63;;;21.94;42.38
48053;BME280;33824;51.600;5.718;2022-08-07T19:00:06;102139.53;;;21.75;42.92
48053;BME280;33824;51.600;5.718;2022-08-07T19:02:56;102146.50;;;21.65;43.16
48053;BME280;33824;51.600;5.718;2022-08-07T19:05:32;102148.78;;;21.61;43.19
48053;BME280;33824;51.600;5.718;2022-08-07T19:08:06;102151.75;;;21.53;43.51
48053;BME280;33824;51.600;5.718;2022-08-07T19:10:45;102152.41;;;21.42;44.23
48053;BME280;33824;51.600;5.718;2022-08-07T19:15:52;102157.69;;;21.30;44.44
48053;BME280;33824;51.600;5.718;2022-08-07T19:18:39;102162.28;;;21.17;45.13
48053;BME280;33824;51.600;5.718;2022-08-07T19:21:26;102161.63;;;21.08;44.90
48053;BME280;33824;51.600;5.718;2022-08-07T19:23:58;102162.06;;;21.05;45.00
48053;BME280;33824;51.600;5.718;2022-08-07T19:26:32;102163.53;;;21.01;45.57
48053;BME280;33824;51.600;5.718;2022-08-07T19:29:01;102164.38;;;20.95;45.67
48053;BME280;33824;51.600;5.718;2022-08-07T19:31:32;102167.31;;;20.87;46.20
48053;BME280;33824;51.600;5.718;2022-08-07T19:34:01;102173.16;;;20.84;46.81
48053;BME280;33824;51.600;5.718;2022-08-07T19:36:29;102168.97;;;20.75;46.90
48053;BME280;33824;51.600;5.718;2022-08-07T19:39:00;102171.03;;;20.66;46.74
48053;BME280;33824;51.600;5.718;2022-08-07T19:41:27;102185.84;;;20.64;46.95
48053;BME280;33824;51.600;5.718;2022-08-07T19:43:58;102180.03;;;20.53;47.35
48053;BME280;33824;51.600;5.718;2022-08-07T19:46:34;102193.53;;;20.47;47.54
48053;BME280;33824;51.600;5.718;2022-08-07T19:49:09;102193.78;;;20.39;47.72
48053;BME280;33824;51.600;5.718;2022-08-07T19:51:36;102195.63;;;20.38;48.00
48053;BME280;33824;51.600;5.718;2022-08-07T19:54:05;102202.28;;;20.36;48.16
48053;BME280;33824;51.600;5.718;2022-08-07T19:56:33;102197.88;;;20.28;48.56
48053;BME280;33824;51.600;5.718;2022-08-07T19:59:21;102207.00;;;20.14;49.12
48053;BME280;33824;51.600;5.718;2022-08-07T20:01:50;102205.13;;;20.15;49.17
48053;BME280;33824;51.600;5.718;2022-08-07T20:04:24;102202.41;;;20.08;49.56
48053;BME280;33824;51.600;5.718;2022-08-07T20:06:53;102202.19;;;20.03;49.61
48053;BME280;33824;51.600;5.718;2022-08-07T20:09:19;102204.47;;;19.99;49.51
48053;BME280;33824;51.600;5.718;2022-08-07T20:11:46;102205.91;;;19.95;50.01
48053;BME280;33824;51.600;5.718;2022-08-07T20:14:21;102203.78;;;19.84;50.25
48053;BME280;33824;51.600;5.718;2022-08-07T20:16:48;102209.59;;;19.81;50.62
48053;BME280;33824;51.600;5.718;2022-08-07T20:19:17;102210.38;;;19.75;50.51
48053;BME280;33824;51.600;5.718;2022-08-07T20:21:45;102208.94;;;19.73;51.20
48053;BME280;33824;51.600;5.718;2022-08-07T20:24:25;102204.69;;;19.57;51.49
48053;BME280;33824;51.600;5.718;2022-08-07T20:26:55;102206.78;;;19.61;51.69
48053;BME280;33824;51.600;5.718;2022-08-07T20:29:27;102211.09;;;19.49;51.72
48053;BME280;33824;51.600;5.718;2022-08-07T20:31:54;102215.03;;;19.19;51.47
48053;BME280;33824;51.600;5.718;2022-08-07T20:34:24;102204.06;;;19.27;52.21
48053;BME280;33824;51.600;5.718;2022-08-07T20:36:52;102213.47;;;19.31;52.73
48053;BME280;33824;51.600;5.718;2022-08-07T20:39:27;102217.75;;;19.19;52.80
48053;BME280;33824;51.600;5.718;2022-08-07T20:41:58;102224.03;;;19.26;53.12
48053;BME280;33824;51.600;5.718;2022-08-07T20:44:28;102223.59;;;19.23;53.12
48053;BME280;33824;51.600;5.718;2022-08-07T20:46:55;102219.41;;;19.20;53.31
48053;BME280;33824;51.600;5.718;2022-08-07T20:49:23;102216.28;;;19.16;53.25
48053;BME280;33824;51.600;5.718;2022-08-07T20:51:51;102223.72;;;19.14;53.47
48053;BME280;33824;51.600;5.718;2022-08-07T20:54:19;102215.59;;;19.08;54.07
48053;BME280;33824;51.600;5.718;2022-08-07T20:56:47;102216.38;;;19.02;54.05
48053;BME280;33824;51.600;5.718;2022-08-07T20:59:15;102225.69;;;18.99;54.54
48053;BME280;33824;51.600;5.718;2022-08-07T21:01:43;102224.63;;;18.94;54.60
48053;BME280;33824;51.600;5.718;2022-08-07T21:04:10;102222.50;;;18.89;55.04
48053;BME280;33824;51.600;5.718;2022-08-07T21:06:39;102223.91;;;18.85;55.12
48053;BME280;33824;51.600;5.718;2022-08-07T21:09:09;102225.72;;;18.78;55.29
48053;BME280;33824;51.600;5.718;2022-08-07T21:11:39;102223.78;;;18.72;55.63
48053;BME280;33824;51.600;5.718;2022-08-07T21:14:08;102228.75;;;18.68;55.86
48053;BME280;33824;51.600;5.718;2022-08-07T21:16:57;102232.06;;;18.49;56.27
48053;BME280;33824;51.600;5.718;2022-08-07T21:19:33;102234.31;;;18.46;56.59
48053;BME280;33824;51.600;5.718;2022-08-07T21:22:04;102230.13;;;18.43;56.92
48053;BME280;33824;51.600;5.718;2022-08-07T21:30:02;102238.22;;;18.22;58.05
48053;BME280;33824;51.600;5.718;2022-08-07T21:33:03;102230.88;;;18.16;58.02
48053;BME280;33824;51.600;5.718;2022-08-07T21:35:38;102239.34;;;18.13;58.41
48053;BME280;33824;51.600;5.718;2022-08-07T21:38:24;102233.44;;;18.03;58.71
48053;BME280;33824;51.600;5.718;2022-08-07T21:41:00;102231.38;;;18.05;58.75
48053;BME280;33824;51.600;5.718;2022-08-07T21:47:00;102239.94;;;17.94;58.86
48053;BME280;33824;51.600;5.718;2022-08-07T21:49:50;102229.81;;;17.81;59.99
48053;BME280;33824;51.600;5.718;2022-08-07T21:52:53;102233.09;;;17.77;60.06
48053;BME280;33824;51.600;5.718;2022-08-07T21:55:26;102232.91;;;17.78;59.96
48053;BME280;33824;51.600;5.718;2022-08-07T22:00:41;102228.25;;;17.72;60.65
48053;BME280;33824;51.600;5.718;2022-08-07T22:03:28;102242.94;;;17.69;60.80
48053;BME280;33824;51.600;5.718;2022-08-07T22:06:14;102244.47;;;17.57;61.15
48053;BME280;33824;51.600;5.718;2022-08-07T22:08:55;102243.28;;;17.52;61.20
48053;BME280;33824;51.600;5.718;2022-08-07T22:11:24;102253.34;;;17.58;61.56
48053;BME280;33824;51.600;5.718;2022-08-07T22:13:53;102253.34;;;17.58;61.81
48053;BME280;33824;51.600;5.718;2022-08-07T22:16:26;102244.31;;;17.51;61.74
48053;BME280;33824;51.600;5.718;2022-08-07T22:21:45;102253.78;;;17.47;62.44
48053;BME280;33824;51.600;5.718;2022-08-07T22:24:18;102251.47;;;17.44;62.52
48053;BME280;33824;51.600;5.718;2022-08-07T22:29:54;102259.63;;;17.36;63.15
48053;BME280;33824;51.600;5.718;2022-08-07T22:32:39;102264.09;;;17.28;63.61
48053;BME280;33824;51.600;5.718;2022-08-07T22:35:11;102264.03;;;17.37;63.50
48053;BME280;33824;51.600;5.718;2022-08-07T22:43:20;102275.25;;;17.25;63.76
48053;BME280;33824;51.600;5.718;2022-08-07T22:46:00;102268.09;;;17.18;64.00
48053;BME280;33824;51.600;5.718;2022-08-07T22:48:41;102277.66;;;17.20;63.89
48053;BME280;33824;51.600;5.718;2022-08-07T22:54:00;102284.88;;;17.05;64.63
48053;BME280;33824;51.600;5.718;2022-08-07T22:56:52;102289.78;;;17.02;64.66
48053;BME280;33824;51.600;5.718;2022-08-07T23:07:36;102286.50;;;16.92;64.92
48053;BME280;33824;51.600;5.718;2022-08-07T23:10:30;102290.63;;;16.79;65.30
48053;BME280;33824;51.600;5.718;2022-08-07T23:15:59;102291.47;;;16.80;65.83
48053;BME280;33824;51.600;5.718;2022-08-07T23:21:25;102292.91;;;16.68;66.18
48053;BME280;33824;51.600;5.718;2022-08-07T23:24:21;102294.47;;;16.62;66.02
48053;BME280;33824;51.600;5.718;2022-08-07T23:27:19;102291.47;;;16.57;66.21
48053;BME280;33824;51.600;5.718;2022-08-07T23:33:09;102281.19;;;16.53;66.21
48053;BME280;33824;51.600;5.718;2022-08-07T23:36:05;102279.72;;;16.50;66.33
48053;BME280;33824;51.600;5.718;2022-08-07T23:42:17;102278.06;;;16.41;66.48
48053;BME280;33824;51.600;5.718;2022-08-07T23:45:11;102278.75;;;16.43;66.60
48053;BME280;33824;51.600;5.718;2022-08-07T23:50:50;102289.06;;;16.31;66.96
48053;BME280;33824;51.600;5.718;2022-08-07T23:56:36;102280.03;;;16.24;67.64
